sensor_id;sensor_type;location;lat;lon;timestamp;P1;durP1;ratioP1;P2;durP2;ratioP2
77146;SDS011;66121;52.584;9.694;2023-05-10T00:00:24;6.15;;;3.47;;
77146;SDS011;66121;52.584;9.694;2023-05-10T00:02:50;8.73;;;3.30;;
77146;SDS011;66121;52.584;9.694;2023-05-10T00:05:15;7.40;;;3.67;;
77146;SDS011;66121;52.584;9.694;2023-05-10T00:07:41;6.03;;;3.72;;
77146;SDS011;66121;52.584;9.694;2023-05-10T00:10:09;8.65;;;3.90;;
77146;SDS011;66121;52.584;9.694;2023-05-10T00:12:35;5.88;;;3.50;;
77146;SDS011;66121;52.584;9.694;2023-05-10T00:15:01;5.50;;;3.40;;
77146;SDS011;66121;52.584;9.694;2023-05-10T00:17:26;6.85;;;3.50;;
77146;SDS011;66121;52.584;9.694;2023-05-10T00:19:51;5.95;;;3.80;;
77146;SDS011;66121;52.584;9.694;2023-05-10T00:22:17;8.00;;;3.60;;
77146;SDS011;66121;52.584;9.694;2023-05-10T00:24:42;8.23;;;3.70;;
77146;SDS011;66121;52.584;9.694;2023-05-10T00:27:07;11.47;;;4.17;;
77146;SDS011;66121;52.584;9.694;2023-05-10T00:29:33;5.95;;;3.60;;
77146;SDS011;66121;52.584;9.694;2023-05-10T00:31:58;8.63;;;3.90;;
77146;SDS011;66121;52.584;9.694;2023-05-10T00:34:24;4.73;;;3.00;;
77146;SDS011;66121;52.584;9.694;2023-05-10T00:36:49;7.20;;;3.80;;
77146;SDS011;66121;52.584;9.694;2023-05-10T00:39:15;7.13;;;4.05;;
77146;SDS011;66121;52.584;9.694;2023-05-10T00:41:40;5.03;;;3.60;;
77146;SDS011;66121;52.584;9.694;2023-05-10T00:44:05;5.53;;;3.50;;
77146;SDS011;66121;52.584;9.694;2023-05-10T00:46:31;4.97;;;3.55;;
77146;SDS011;66121;52.584;9.694;2023-05-10T00:48:56;5.75;;;4.15;;
77146;SDS011;66121;52.584;9.694;2023-05-10T00:51:22;7.55;;;3.58;;
77146;SDS011;66121;52.584;9.694;2023-05-10T00:53:47;5.45;;;3.35;;
77146;SDS011;66121;52.584;9.694;2023-05-10T00:56:14;6.07;;;3.63;;
77146;SDS011;66121;52.584;9.694;2023-05-10T00:58:40;11.45;;;4.25;;
77146;SDS011;66121;52.584;9.694;2023-05-10T01:01:06;6.65;;;3.85;;
77146;SDS011;66121;52.584;9.694;2023-05-10T01:03:32;7.88;;;3.80;;
77146;SDS011;66121;52.584;9.694;2023-05-10T01:05:57;8.77;;;3.87;;
77146;SDS011;66121;52.584;9.694;2023-05-10T01:08:23;6.05;;;3.95;;
77146;SDS011;66121;52.584;9.694;2023-05-10T01:10:49;6.50;;;3.83;;
77146;SDS011;66121;52.584;9.694;2023-05-10T01:13:17;5.43;;;3.95;;
77146;SDS011;66121;52.584;9.694;2023-05-10T01:15:52;7.22;;;4.45;;
77146;SDS011;66121;52.584;9.694;2023-05-10T01:18:18;6.35;;;3.88;;
77146;SDS011;66121;52.584;9.694;2023-05-10T01:20:45;6.10;;;4.03;;
77146;SDS011;66121;52.584;9.694;2023-05-10T01:23:35;6.05;;;4.00;;
77146;SDS011;66121;52.584;9.694;2023-05-10T01:29:09;5.95;;;3.88;;
77146;SDS011;66121;52.584;9.694;2023-05-10T01:34:27;8.55;;;4.13;;
77146;SDS011;66121;52.584;9.694;2023-05-10T01:37:02;6.32;;;4.53;;
77146;SDS011;66121;52.584;9.694;2023-05-10T01:44:40;9.20;;;5.75;;
77146;SDS011;66121;52.584;9.694;2023-05-10T01:47:37;7.68;;;4.60;;
77146;SDS011;66121;52.584;9.694;2023-05-10T01:50:06;9.10;;;4.43;;
77146;SDS011;66121;52.584;9.694;2023-05-10T01:52:44;9.32;;;4.70;;
77146;SDS011;66121;52.584;9.694;2023-05-10T01:55:15;6.13;;;4.47;;
77146;SDS011;66121;52.584;9.694;2023-05-10T01:57:43;9.10;;;5.03;;
77146;SDS011;66121;52.584;9.694;2023-05-10T02:00:09;7.43;;;4.40;;
77146;SDS011;66121;52.584;9.694;2023-05-10T02:02:37;9.23;;;5.05;;
77146;SDS011;66121;52.584;9.694;2023-05-10T02:05:05;7.10;;;5.20;;
77146;SDS011;66121;52.584;9.694;2023-05-10T02:07:31;7.32;;;5.18;;
77146;SDS011;66121;52.584;9.694;2023-05-10T02:10:00;7.50;;;4.90;;
77146;SDS011;66121;52.584;9.694;2023-05-10T02:12:27;8.27;;;4.78;;
77146;SDS011;66121;52.584;9.694;2023-05-10T02:14:54;7.75;;;4.70;;
77146;SDS011;66121;52.584;9.694;2023-05-10T02:17:21;11.45;;;5.85;;
77146;SDS011;66121;52.584;9.694;2023-05-10T02:19:48;7.78;;;5.20;;
77146;SDS011;66121;52.584;9.694;2023-05-10T02:22:14;8.70;;;4.53;;
77146;SDS011;66121;52.584;9.694;2023-05-10T02:24:41;7.07;;;4.82;;
77146;SDS011;66121;52.584;9.694;2023-05-10T02:27:09;7.00;;;5.25;;
77146;SDS011;66121;52.584;9.694;2023-05-10T02:29:36;6.88;;;4.90;;
77146;SDS011;66121;52.584;9.694;2023-05-10T02:32:02;7.60;;;4.75;;
77146;SDS011;66121;52.584;9.694;2023-05-10T02:34:27;8.90;;;5.25;;
77146;SDS011;66121;52.584;9.694;2023-05-10T02:36:53;8.73;;;4.95;;
77146;SDS011;66121;52.584;9.694;2023-05-10T02:39:20;8.18;;;4.80;;
77146;SDS011;66121;52.584;9.694;2023-05-10T02:41:46;8.02;;;4.95;;
77146;SDS011;66121;52.584;9.694;2023-05-10T02:44:22;6.57;;;4.50;;
77146;SDS011;66121;52.584;9.694;2023-05-10T02:46:50;6.88;;;5.22;;
77146;SDS011;66121;52.584;9.694;2023-05-10T02:49:16;8.23;;;5.30;;
77146;SDS011;66121;52.584;9.694;2023-05-10T02:51:44;7.63;;;5.20;;
77146;SDS011;66121;52.584;9.694;2023-05-10T02:54:18;8.82;;;4.90;;
77146;SDS011;66121;52.584;9.694;2023-05-10T02:56:50;7.03;;;5.10;;
77146;SDS011;66121;52.584;9.694;2023-05-10T02:59:18;8.90;;;6.07;;
77146;SDS011;66121;52.584;9.694;2023-05-10T03:01:44;7.38;;;5.50;;
77146;SDS011;66121;52.584;9.694;2023-05-10T03:04:09;7.60;;;5.55;;
77146;SDS011;66121;52.584;9.694;2023-05-10T03:06:35;8.17;;;5.97;;
77146;SDS011;66121;52.584;9.694;2023-05-10T03:09:01;8.70;;;5.43;;
77146;SDS011;66121;52.584;9.694;2023-05-10T03:16:46;7.43;;;4.72;;
77146;SDS011;66121;52.584;9.694;2023-05-10T03:19:22;9.63;;;4.85;;
77146;SDS011;66121;52.584;9.694;2023-05-10T03:21:52;9.27;;;5.72;;
77146;SDS011;66121;52.584;9.694;2023-05-10T03:24:21;8.43;;;5.15;;
77146;SDS011;66121;52.584;9.694;2023-05-10T03:26:52;9.02;;;5.07;;
77146;SDS011;66121;52.584;9.694;2023-05-10T03:29:21;8.27;;;5.05;;
77146;SDS011;66121;52.584;9.694;2023-05-10T03:31:47;10.10;;;5.22;;
77146;SDS011;66121;52.584;9.694;2023-05-10T03:34:13;7.20;;;5.50;;
77146;SDS011;66121;52.584;9.694;2023-05-10T03:36:38;6.77;;;5.10;;
77146;SDS011;66121;52.584;9.694;2023-05-10T03:39:03;8.10;;;5.30;;
77146;SDS011;66121;52.584;9.694;2023-05-10T03:41:29;10.70;;;6.03;;
77146;SDS011;66121;52.584;9.694;2023-05-10T03:43:54;9.43;;;5.60;;
77146;SDS011;66121;52.584;9.694;2023-05-10T03:46:19;8.77;;;5.25;;
77146;SDS011;66121;52.584;9.694;2023-05-10T03:48:45;8.57;;;5.23;;
77146;SDS011;66121;52.584;9.694;2023-05-10T03:51:10;8.67;;;5.03;;
77146;SDS011;66121;52.584;9.694;2023-05-10T03:53:35;10.13;;;5.53;;
77146;SDS011;66121;52.584;9.694;2023-05-10T03:56:00;7.83;;;5.50;;
77146;SDS011;66121;52.584;9.694;2023-05-10T03:58:26;9.40;;;5.63;;
77146;SDS011;66121;52.584;9.694;2023-05-10T04:00:51;7.97;;;5.07;;
77146;SDS011;66121;52.584;9.694;2023-05-10T04:03:17;7.22;;;5.40;;
77146;SDS011;66121;52.584;9.694;2023-05-10T04:05:42;8.68;;;5.35;;
77146;SDS011;66121;52.584;9.694;2023-05-10T04:08:08;7.25;;;5.53;;
77146;SDS011;66121;52.584;9.694;2023-05-10T04:10:33;9.18;;;6.15;;
77146;SDS011;66121;52.584;9.694;2023-05-10T04:12:58;9.57;;;5.88;;
77146;SDS011;66121;52.584;9.694;2023-05-10T04:15:24;8.23;;;5.13;;
77146;SDS011;66121;52.584;9.694;2023-05-10T04:17:49;7.70;;;5.47;;
77146;SDS011;66121;52.584;9.694;2023-05-10T04:20:15;6.70;;;4.97;;
77146;SDS011;66121;52.584;9.694;2023-05-10T04:22:40;9.95;;;5.82;;
77146;SDS011;66121;52.584;9.694;2023-05-10T04:25:06;10.43;;;5.43;;
77146;SDS011;66121;52.584;9.694;2023-05-10T04:27:32;9.80;;;5.80;;
77146;SDS011;66121;52.584;9.694;2023-05-10T04:29:57;8.32;;;5.78;;
77146;SDS011;66121;52.584;9.694;2023-05-10T04:32:23;8.47;;;5.23;;
77146;SDS011;66121;52.584;9.694;2023-05-10T04:34:48;7.80;;;5.57;;
77146;SDS011;66121;52.584;9.694;2023-05-10T04:37:14;8.35;;;5.70;;
77146;SDS011;66121;52.584;9.694;2023-05-10T04:39:39;9.50;;;5.57;;
77146;SDS011;66121;52.584;9.694;2023-05-10T04:42:05;13.95;;;5.82;;
77146;SDS011;66121;52.584;9.694;2023-05-10T04:44:30;8.02;;;6.22;;
77146;SDS011;66121;52.584;9.694;2023-05-10T04:46:56;9.80;;;6.18;;
77146;SDS011;66121;52.584;9.694;2023-05-10T04:49:22;9.73;;;6.45;;
77146;SDS011;66121;52.584;9.694;2023-05-10T04:51:47;8.50;;;6.55;;
77146;SDS011;66121;52.584;9.694;2023-05-10T04:54:12;6.97;;;5.30;;
77146;SDS011;66121;52.584;9.694;2023-05-10T04:56:37;9.57;;;7.20;;
77146;SDS011;66121;52.584;9.694;2023-05-10T04:59:03;11.00;;;6.53;;
77146;SDS011;66121;52.584;9.694;2023-05-10T05:01:28;10.30;;;6.25;;
77146;SDS011;66121;52.584;9.694;2023-05-10T05:03:53;9.17;;;6.13;;
77146;SDS011;66121;52.584;9.694;2023-05-10T05:06:19;11.30;;;5.95;;
77146;SDS011;66121;52.584;9.694;2023-05-10T05:08:45;8.13;;;5.78;;
77146;SDS011;66121;52.584;9.694;2023-05-10T05:11:11;7.65;;;6.07;;
77146;SDS011;66121;52.584;9.694;2023-05-10T05:13:36;8.53;;;6.47;;
77146;SDS011;66121;52.584;9.694;2023-05-10T05:16:02;11.98;;;6.72;;
77146;SDS011;66121;52.584;9.694;2023-05-10T05:18:28;10.18;;;6.38;;
77146;SDS011;66121;52.584;9.694;2023-05-10T05:20:53;9.18;;;5.80;;
77146;SDS011;66121;52.584;9.694;2023-05-10T05:23:18;10.00;;;6.53;;
77146;SDS011;66121;52.584;9.694;2023-05-10T05:25:45;7.63;;;5.70;;
77146;SDS011;66121;52.584;9.694;2023-05-10T05:28:11;10.98;;;6.07;;
77146;SDS011;66121;52.584;9.694;2023-05-10T05:30:36;9.40;;;6.50;;
77146;SDS011;66121;52.584;9.694;2023-05-10T05:33:01;9.83;;;6.80;;
77146;SDS011;66121;52.584;9.694;2023-05-10T05:35:27;9.20;;;6.22;;
77146;SDS011;66121;52.584;9.694;2023-05-10T05:37:52;8.37;;;6.33;;
77146;SDS011;66121;52.584;9.694;2023-05-10T05:40:17;10.50;;;6.30;;
77146;SDS011;66121;52.584;9.694;2023-05-10T05:42:42;12.63;;;7.27;;
77146;SDS011;66121;52.584;9.694;2023-05-10T05:45:08;9.17;;;6.43;;
77146;SDS011;66121;52.584;9.694;2023-05-10T05:47:37;10.82;;;7.03;;
77146;SDS011;66121;52.584;9.694;2023-05-10T05:50:03;11.73;;;6.72;;
77146;SDS011;66121;52.584;9.694;2023-05-10T05:52:28;10.75;;;7.10;;
77146;SDS011;66121;52.584;9.694;2023-05-10T05:54:55;11.63;;;7.50;;
77146;SDS011;66121;52.584;9.694;2023-05-10T05:57:20;13.73;;;7.10;;
77146;SDS011;66121;52.584;9.694;2023-05-10T05:59:46;10.93;;;7.75;;
77146;SDS011;66121;52.584;9.694;2023-05-10T06:02:12;13.98;;;7.97;;
77146;SDS011;66121;52.584;9.694;2023-05-10T06:04:37;12.48;;;7.63;;
77146;SDS011;66121;52.584;9.694;2023-05-10T06:07:02;11.80;;;7.77;;
77146;SDS011;66121;52.584;9.694;2023-05-10T06:09:28;11.30;;;7.75;;
77146;SDS011;66121;52.584;9.694;2023-05-10T06:11:54;12.70;;;8.18;;
77146;SDS011;66121;52.584;9.694;2023-05-10T06:14:20;12.40;;;7.63;;
77146;SDS011;66121;52.584;9.694;2023-05-10T06:16:45;15.55;;;9.50;;
77146;SDS011;66121;52.584;9.694;2023-05-10T06:19:11;12.75;;;8.02;;
77146;SDS011;66121;52.584;9.694;2023-05-10T06:21:36;11.32;;;8.05;;
77146;SDS011;66121;52.584;9.694;2023-05-10T06:24:02;12.60;;;8.53;;
77146;SDS011;66121;52.584;9.694;2023-05-10T06:26:27;11.63;;;7.72;;
77146;SDS011;66121;52.584;9.694;2023-05-10T06:28:53;15.00;;;9.65;;
77146;SDS011;66121;52.584;9.694;2023-05-10T06:31:18;11.63;;;7.83;;
77146;SDS011;66121;52.584;9.694;2023-05-10T06:33:43;13.30;;;8.90;;
77146;SDS011;66121;52.584;9.694;2023-05-10T06:36:09;11.57;;;8.27;;
77146;SDS011;66121;52.584;9.694;2023-05-10T06:38:34;14.88;;;8.85;;
77146;SDS011;66121;52.584;9.694;2023-05-10T06:40:59;12.73;;;8.23;;
77146;SDS011;66121;52.584;9.694;2023-05-10T06:43:25;14.02;;;9.05;;
77146;SDS011;66121;52.584;9.694;2023-05-10T06:45:51;14.50;;;9.05;;
77146;SDS011;66121;52.584;9.694;2023-05-10T06:48:16;13.30;;;8.90;;
77146;SDS011;66121;52.584;9.694;2023-05-10T06:50:42;12.95;;;8.25;;
77146;SDS011;66121;52.584;9.694;2023-05-10T06:53:07;13.60;;;8.82;;
77146;SDS011;66121;52.584;9.694;2023-05-10T06:55:32;16.83;;;9.70;;
77146;SDS011;66121;52.584;9.694;2023-05-10T06:57:58;12.82;;;9.98;;
77146;SDS011;66121;52.584;9.694;2023-05-10T07:00:23;12.90;;;9.02;;
77146;SDS011;66121;52.584;9.694;2023-05-10T07:02:49;15.70;;;10.10;;
77146;SDS011;66121;52.584;9.694;2023-05-10T07:05:14;12.10;;;8.80;;
77146;SDS011;66121;52.584;9.694;2023-05-10T07:07:40;13.55;;;8.95;;
77146;SDS011;66121;52.584;9.694;2023-05-10T07:10:05;12.75;;;9.20;;
77146;SDS011;66121;52.584;9.694;2023-05-10T07:12:31;14.25;;;9.93;;
77146;SDS011;66121;52.584;9.694;2023-05-10T07:14:57;16.57;;;10.33;;
77146;SDS011;66121;52.584;9.694;2023-05-10T07:17:22;13.80;;;9.97;;
77146;SDS011;66121;52.584;9.694;2023-05-10T07:19:47;18.70;;;10.00;;
77146;SDS011;66121;52.584;9.694;2023-05-10T07:22:13;16.30;;;10.25;;
77146;SDS011;66121;52.584;9.694;2023-05-10T07:24:39;16.73;;;10.23;;
77146;SDS011;66121;52.584;9.694;2023-05-10T07:27:05;14.68;;;10.18;;
77146;SDS011;66121;52.584;9.694;2023-05-10T07:29:30;17.60;;;10.45;;
77146;SDS011;66121;52.584;9.694;2023-05-10T07:31:56;16.67;;;10.68;;
77146;SDS011;66121;52.584;9.694;2023-05-10T07:34:21;16.85;;;11.13;;
77146;SDS011;66121;52.584;9.694;2023-05-10T07:36:46;15.43;;;10.25;;
77146;SDS011;66121;52.584;9.694;2023-05-10T07:39:12;17.80;;;11.35;;
77146;SDS011;66121;52.584;9.694;2023-05-10T07:41:37;13.90;;;9.37;;
77146;SDS011;66121;52.584;9.694;2023-05-10T07:44:03;19.17;;;10.07;;
77146;SDS011;66121;52.584;9.694;2023-05-10T07:46:29;15.13;;;10.48;;
77146;SDS011;66121;52.584;9.694;2023-05-10T07:48:54;13.10;;;9.13;;
77146;SDS011;66121;52.584;9.694;2023-05-10T07:51:20;14.30;;;9.88;;
77146;SDS011;66121;52.584;9.694;2023-05-10T07:53:46;14.38;;;9.65;;
77146;SDS011;66121;52.584;9.694;2023-05-10T07:56:21;15.68;;;9.35;;
77146;SDS011;66121;52.584;9.694;2023-05-10T07:58:52;18.27;;;11.88;;
77146;SDS011;66121;52.584;9.694;2023-05-10T08:01:18;18.35;;;10.63;;
77146;SDS011;66121;52.584;9.694;2023-05-10T08:03:43;15.77;;;10.13;;
77146;SDS011;66121;52.584;9.694;2023-05-10T08:06:08;14.68;;;9.00;;
77146;SDS011;66121;52.584;9.694;2023-05-10T08:08:34;16.58;;;10.07;;
77146;SDS011;66121;52.584;9.694;2023-05-10T08:10:59;13.68;;;9.20;;
77146;SDS011;66121;52.584;9.694;2023-05-10T08:13:24;12.77;;;8.93;;
77146;SDS011;66121;52.584;9.694;2023-05-10T08:15:49;11.57;;;7.53;;
77146;SDS011;66121;52.584;9.694;2023-05-10T08:18:17;12.23;;;8.35;;
77146;SDS011;66121;52.584;9.694;2023-05-10T08:20:43;10.37;;;8.07;;
77146;SDS011;66121;52.584;9.694;2023-05-10T08:23:08;10.80;;;7.93;;
77146;SDS011;66121;52.584;9.694;2023-05-10T08:25:33;8.83;;;6.77;;
77146;SDS011;66121;52.584;9.694;2023-05-10T08:27:58;8.73;;;6.10;;
77146;SDS011;66121;52.584;9.694;2023-05-10T08:30:24;12.43;;;6.72;;
77146;SDS011;66121;52.584;9.694;2023-05-10T08:32:49;10.10;;;6.90;;
77146;SDS011;66121;52.584;9.694;2023-05-10T08:35:15;9.70;;;6.50;;
77146;SDS011;66121;52.584;9.694;2023-05-10T08:37:40;9.02;;;6.32;;
77146;SDS011;66121;52.584;9.694;2023-05-10T08:40:06;9.77;;;6.50;;
77146;SDS011;66121;52.584;9.694;2023-05-10T08:42:32;8.25;;;5.80;;
77146;SDS011;66121;52.584;9.694;2023-05-10T08:45:01;10.07;;;6.95;;
77146;SDS011;66121;52.584;9.694;2023-05-10T08:47:28;7.78;;;6.00;;
77146;SDS011;66121;52.584;9.694;2023-05-10T08:49:54;8.73;;;6.00;;
77146;SDS011;66121;52.584;9.694;2023-05-10T08:52:20;6.55;;;5.72;;
77146;SDS011;66121;52.584;9.694;2023-05-10T08:54:49;9.05;;;6.57;;
77146;SDS011;66121;52.584;9.694;2023-05-10T08:57:14;9.02;;;5.95;;
77146;SDS011;66121;52.584;9.694;2023-05-10T08:59:40;7.45;;;5.60;;
77146;SDS011;66121;52.584;9.694;2023-05-10T09:02:05;8.88;;;6.00;;
77146;SDS011;66121;52.584;9.694;2023-05-10T09:04:31;7.68;;;5.60;;
77146;SDS011;66121;52.584;9.694;2023-05-10T09:06:56;7.97;;;5.30;;
77146;SDS011;66121;52.584;9.694;2023-05-10T09:09:22;6.13;;;4.55;;
77146;SDS011;66121;52.584;9.694;2023-05-10T09:11:49;7.53;;;5.18;;
77146;SDS011;66121;52.584;9.694;2023-05-10T09:14:14;6.38;;;4.50;;
77146;SDS011;66121;52.584;9.694;2023-05-10T09:16:40;8.57;;;5.47;;
77146;SDS011;66121;52.584;9.694;2023-05-10T09:19:06;6.63;;;5.47;;
77146;SDS011;66121;52.584;9.694;2023-05-10T09:21:33;7.25;;;4.85;;
77146;SDS011;66121;52.584;9.694;2023-05-10T09:24:05;5.88;;;4.03;;
77146;SDS011;66121;52.584;9.694;2023-05-10T09:26:31;4.82;;;3.55;;
77146;SDS011;66121;52.584;9.694;2023-05-10T09:28:59;8.00;;;4.43;;
77146;SDS011;66121;52.584;9.694;2023-05-10T09:31:25;6.10;;;3.53;;
77146;SDS011;66121;52.584;9.694;2023-05-10T09:34:09;5.75;;;4.10;;
77146;SDS011;66121;52.584;9.694;2023-05-10T09:36:35;5.97;;;4.10;;
77146;SDS011;66121;52.584;9.694;2023-05-10T09:39:00;5.63;;;4.00;;
77146;SDS011;66121;52.584;9.694;2023-05-10T09:41:25;5.77;;;4.13;;
77146;SDS011;66121;52.584;9.694;2023-05-10T09:43:54;5.78;;;4.30;;
77146;SDS011;66121;52.584;9.694;2023-05-10T09:46:22;5.32;;;4.10;;
77146;SDS011;66121;52.584;9.694;2023-05-10T09:48:47;5.57;;;4.32;;
77146;SDS011;66121;52.584;9.694;2023-05-10T09:51:20;5.68;;;4.05;;
77146;SDS011;66121;52.584;9.694;2023-05-10T09:53:46;5.65;;;3.58;;
77146;SDS011;66121;52.584;9.694;2023-05-10T09:56:11;6.05;;;4.10;;
77146;SDS011;66121;52.584;9.694;2023-05-10T09:58:37;4.57;;;3.37;;
77146;SDS011;66121;52.584;9.694;2023-05-10T10:01:10;6.32;;;4.03;;
77146;SDS011;66121;52.584;9.694;2023-05-10T10:03:40;6.75;;;5.00;;
77146;SDS011;66121;52.584;9.694;2023-05-10T10:06:07;6.10;;;4.38;;
77146;SDS011;66121;52.584;9.694;2023-05-10T10:08:33;5.03;;;4.00;;
77146;SDS011;66121;52.584;9.694;2023-05-10T10:10:59;5.97;;;4.78;;
77146;SDS011;66121;52.584;9.694;2023-05-10T10:13:24;5.55;;;4.05;;
77146;SDS011;66121;52.584;9.694;2023-05-10T10:15:50;5.97;;;4.32;;
77146;SDS011;66121;52.584;9.694;2023-05-10T10:18:17;6.50;;;4.03;;
77146;SDS011;66121;52.584;9.694;2023-05-10T10:20:42;6.70;;;4.47;;
77146;SDS011;66121;52.584;9.694;2023-05-10T10:23:08;5.63;;;4.05;;
77146;SDS011;66121;52.584;9.694;2023-05-10T10:25:33;5.30;;;4.07;;
77146;SDS011;66121;52.584;9.694;2023-05-10T10:28:09;7.60;;;4.65;;
77146;SDS011;66121;52.584;9.694;2023-05-10T10:30:47;6.70;;;4.53;;
77146;SDS011;66121;52.584;9.694;2023-05-10T10:36:14;6.30;;;4.45;;
77146;SDS011;66121;52.584;9.694;2023-05-10T10:41:27;7.72;;;5.53;;
77146;SDS011;66121;52.584;9.694;2023-05-10T10:49:48;8.73;;;5.00;;
77146;SDS011;66121;52.584;9.694;2023-05-10T11:00:19;8.40;;;4.60;;
77146;SDS011;66121;52.584;9.694;2023-05-10T11:05:46;6.13;;;4.60;;
77146;SDS011;66121;52.584;9.694;2023-05-10T11:08:14;7.82;;;4.97;;
77146;SDS011;66121;52.584;9.694;2023-05-10T11:11:06;7.13;;;4.80;;
77146;SDS011;66121;52.584;9.694;2023-05-10T11:13:45;6.65;;;4.53;;
77146;SDS011;66121;52.584;9.694;2023-05-10T11:19:03;7.30;;;4.30;;
77146;SDS011;66121;52.584;9.694;2023-05-10T11:21:30;7.15;;;4.65;;
77146;SDS011;66121;52.584;9.694;2023-05-10T11:23:56;10.25;;;5.00;;
77146;SDS011;66121;52.584;9.694;2023-05-10T11:26:24;6.97;;;5.07;;
77146;SDS011;66121;52.584;9.694;2023-05-10T11:28:51;7.15;;;5.20;;
77146;SDS011;66121;52.584;9.694;2023-05-10T11:31:20;6.72;;;4.88;;
77146;SDS011;66121;52.584;9.694;2023-05-10T11:33:52;7.97;;;4.97;;
77146;SDS011;66121;52.584;9.694;2023-05-10T11:38:45;7.97;;;5.17;;
77146;SDS011;66121;52.584;9.694;2023-05-10T11:41:11;7.43;;;5.13;;
77146;SDS011;66121;52.584;9.694;2023-05-10T11:43:40;5.60;;;4.70;;
77146;SDS011;66121;52.584;9.694;2023-05-10T11:46:07;8.13;;;5.43;;
77146;SDS011;66121;52.584;9.694;2023-05-10T11:48:34;10.05;;;5.45;;
77146;SDS011;66121;52.584;9.694;2023-05-10T11:51:00;8.63;;;5.22;;
77146;SDS011;66121;52.584;9.694;2023-05-10T11:53:27;9.30;;;5.43;;
77146;SDS011;66121;52.584;9.694;2023-05-10T11:55:54;6.10;;;5.05;;
77146;SDS011;66121;52.584;9.694;2023-05-10T11:58:20;8.50;;;5.30;;
77146;SDS011;66121;52.584;9.694;2023-05-10T12:00:46;6.10;;;4.95;;
77146;SDS011;66121;52.584;9.694;2023-05-10T12:03:12;7.07;;;4.10;;
77146;SDS011;66121;52.584;9.694;2023-05-10T12:05:37;7.35;;;4.18;;
77146;SDS011;66121;52.584;9.694;2023-05-10T12:08:12;7.47;;;4.35;;
77146;SDS011;66121;52.584;9.694;2023-05-10T12:10:45;7.97;;;4.28;;
77146;SDS011;66121;52.584;9.694;2023-05-10T12:13:10;6.63;;;4.97;;
77146;SDS011;66121;52.584;9.694;2023-05-10T12:15:38;7.07;;;5.15;;
77146;SDS011;66121;52.584;9.694;2023-05-10T12:18:03;6.53;;;4.37;;
77146;SDS011;66121;52.584;9.694;2023-05-10T12:20:30;6.00;;;4.50;;
77146;SDS011;66121;52.584;9.694;2023-05-10T12:22:56;6.60;;;4.38;;
77146;SDS011;66121;52.584;9.694;2023-05-10T12:25:23;8.80;;;4.47;;
77146;SDS011;66121;52.584;9.694;2023-05-10T12:27:55;6.88;;;4.63;;
77146;SDS011;66121;52.584;9.694;2023-05-10T12:32:51;8.13;;;4.95;;
77146;SDS011;66121;52.584;9.694;2023-05-10T12:35:17;6.20;;;4.32;;
77146;SDS011;66121;52.584;9.694;2023-05-10T12:37:46;6.82;;;4.38;;
77146;SDS011;66121;52.584;9.694;2023-05-10T12:40:12;5.78;;;4.50;;
77146;SDS011;66121;52.584;9.694;2023-05-10T12:42:38;6.07;;;4.00;;
77146;SDS011;66121;52.584;9.694;2023-05-10T12:45:04;7.40;;;5.13;;
77146;SDS011;66121;52.584;9.694;2023-05-10T12:47:31;6.85;;;4.85;;
77146;SDS011;66121;52.584;9.694;2023-05-10T12:49:56;5.97;;;3.83;;
77146;SDS011;66121;52.584;9.694;2023-05-10T12:52:22;6.63;;;3.10;;
77146;SDS011;66121;52.584;9.694;2023-05-10T12:54:47;7.82;;;3.17;;
77146;SDS011;66121;52.584;9.694;2023-05-10T12:57:14;7.22;;;4.10;;
77146;SDS011;66121;52.584;9.694;2023-05-10T12:59:39;7.60;;;3.50;;
77146;SDS011;66121;52.584;9.694;2023-05-10T13:02:05;9.40;;;3.88;;
77146;SDS011;66121;52.584;9.694;2023-05-10T13:04:31;10.18;;;4.85;;
77146;SDS011;66121;52.584;9.694;2023-05-10T13:06:56;7.80;;;4.78;;
77146;SDS011;66121;52.584;9.694;2023-05-10T13:09:23;13.93;;;7.00;;
77146;SDS011;66121;52.584;9.694;2023-05-10T13:11:54;10.07;;;6.18;;
77146;SDS011;66121;52.584;9.694;2023-05-10T13:14:19;11.38;;;6.55;;
77146;SDS011;66121;52.584;9.694;2023-05-10T13:16:45;9.77;;;6.97;;
77146;SDS011;66121;52.584;9.694;2023-05-10T13:19:11;13.13;;;8.35;;
77146;SDS011;66121;52.584;9.694;2023-05-10T13:21:36;12.50;;;8.20;;
77146;SDS011;66121;52.584;9.694;2023-05-10T13:24:01;16.40;;;8.68;;
77146;SDS011;66121;52.584;9.694;2023-05-10T13:26:27;15.65;;;8.85;;
77146;SDS011;66121;52.584;9.694;2023-05-10T13:28:53;13.90;;;8.60;;
77146;SDS011;66121;52.584;9.694;2023-05-10T13:31:20;15.38;;;8.40;;
77146;SDS011;66121;52.584;9.694;2023-05-10T13:33:45;13.00;;;7.80;;
77146;SDS011;66121;52.584;9.694;2023-05-10T13:36:11;15.18;;;8.10;;
77146;SDS011;66121;52.584;9.694;2023-05-10T13:38:36;14.30;;;8.33;;
77146;SDS011;66121;52.584;9.694;2023-05-10T13:41:02;15.10;;;8.75;;
77146;SDS011;66121;52.584;9.694;2023-05-10T13:43:28;14.98;;;7.60;;
77146;SDS011;66121;52.584;9.694;2023-05-10T13:45:54;15.48;;;7.97;;
77146;SDS011;66121;52.584;9.694;2023-05-10T13:48:19;12.85;;;7.25;;
77146;SDS011;66121;52.584;9.694;2023-05-10T13:50:45;13.95;;;8.20;;
77146;SDS011;66121;52.584;9.694;2023-05-10T13:53:11;12.15;;;7.05;;
77146;SDS011;66121;52.584;9.694;2023-05-10T13:55:36;13.35;;;8.30;;
77146;SDS011;66121;52.584;9.694;2023-05-10T13:58:01;12.68;;;7.13;;
77146;SDS011;66121;52.584;9.694;2023-05-10T14:00:27;11.97;;;7.97;;
77146;SDS011;66121;52.584;9.694;2023-05-10T14:02:53;11.97;;;7.30;;
77146;SDS011;66121;52.584;9.694;2023-05-10T14:05:18;13.77;;;8.70;;
77146;SDS011;66121;52.584;9.694;2023-05-10T14:07:44;14.88;;;9.02;;
77146;SDS011;66121;52.584;9.694;2023-05-10T14:10:09;16.52;;;8.75;;
77146;SDS011;66121;52.584;9.694;2023-05-10T14:12:35;12.35;;;7.95;;
77146;SDS011;66121;52.584;9.694;2023-05-10T14:15:00;15.10;;;8.53;;
77146;SDS011;66121;52.584;9.694;2023-05-10T14:17:26;14.63;;;8.23;;
77146;SDS011;66121;52.584;9.694;2023-05-10T14:19:51;16.88;;;8.88;;
77146;SDS011;66121;52.584;9.694;2023-05-10T14:22:17;15.90;;;9.27;;
77146;SDS011;66121;52.584;9.694;2023-05-10T14:24:43;15.23;;;8.63;;
77146;SDS011;66121;52.584;9.694;2023-05-10T14:27:11;14.65;;;9.25;;
77146;SDS011;66121;52.584;9.694;2023-05-10T14:29:37;13.93;;;8.10;;
77146;SDS011;66121;52.584;9.694;2023-05-10T14:32:02;12.30;;;7.80;;
77146;SDS011;66121;52.584;9.694;2023-05-10T14:34:27;13.35;;;7.88;;
77146;SDS011;66121;52.584;9.694;2023-05-10T14:36:53;14.80;;;9.07;;
77146;SDS011;66121;52.584;9.694;2023-05-10T14:39:18;17.30;;;9.37;;
77146;SDS011;66121;52.584;9.694;2023-05-10T14:41:43;17.37;;;9.23;;
77146;SDS011;66121;52.584;9.694;2023-05-10T14:44:10;13.18;;;8.73;;
77146;SDS011;66121;52.584;9.694;2023-05-10T14:46:36;15.30;;;8.45;;
77146;SDS011;66121;52.584;9.694;2023-05-10T14:49:01;14.90;;;9.50;;
77146;SDS011;66121;52.584;9.694;2023-05-10T14:51:27;14.07;;;9.27;;
77146;SDS011;66121;52.584;9.694;2023-05-10T14:53:52;15.27;;;9.52;;
77146;SDS011;66121;52.584;9.694;2023-05-10T14:56:17;15.97;;;8.23;;
77146;SDS011;66121;52.584;9.694;2023-05-10T14:58:43;16.27;;;8.65;;
77146;SDS011;66121;52.584;9.694;2023-05-10T15:01:08;14.03;;;10.33;;
77146;SDS011;66121;52.584;9.694;2023-05-10T15:03:33;16.60;;;9.40;;
77146;SDS011;66121;52.584;9.694;2023-05-10T15:05:59;14.70;;;8.30;;
77146;SDS011;66121;52.584;9.694;2023-05-10T15:08:24;14.20;;;8.43;;
77146;SDS011;66121;52.584;9.694;2023-05-10T15:10:50;16.33;;;9.77;;
77146;SDS011;66121;52.584;9.694;2023-05-10T15:13:16;15.35;;;8.93;;
77146;SDS011;66121;52.584;9.694;2023-05-10T15:15:41;14.55;;;8.88;;
77146;SDS011;66121;52.584;9.694;2023-05-10T15:18:08;19.52;;;11.13;;
77146;SDS011;66121;52.584;9.694;2023-05-10T15:20:34;14.13;;;9.35;;
77146;SDS011;66121;52.584;9.694;2023-05-10T15:22:59;14.20;;;8.57;;